Time;durP1;ratioP1;P1;durP2;ratioP2;P2;SDS_P1;SDS_P2;PMS_P1;PMS_P2;Temp;Humidity;BMP_temperature;BMP_pressure;BME280_temperature;BME280_humidity;BME280_pressure;Samples;Min_cycle;Max_cycle;Signal;HPM_P1;HPM_P2
2021/08/11 00:00:12;;;;;;;11.27;8.13;;;15.40;99.90;;;;;;4976336;28;20415;-76
2021/08/11 00:02:38;;;;;;;10.45;8.88;;;15.40;99.90;;;;;;4978460;28;20393;-76
2021/08/11 00:05:04;;;;;;;8.77;7.88;;;15.40;99.90;;;;;;4987333;28;20114;-75
2021/08/11 00:07:29;;;;;;;10.32;8.40;;;15.40;99.90;;;;;;4975876;28;20023;-76
2021/08/11 00:09:55;;;;;;;10.77;8.35;;;15.30;99.90;;;;;;4975521;28;20026;-76
2021/08/11 00:12:20;;;;;;;9.65;8.00;;;15.30;99.90;;;;;;4976610;28;20495;-76
2021/08/11 00:14:46;;;;;;;8.93;7.57;;;15.30;99.90;;;;;;4975019;28;20026;-76
2021/08/11 00:17:11;;;;;;;9.38;7.97;;;15.30;99.90;;;;;;4976253;28;20384;-75
2021/08/11 00:19:38;;;;;;;9.65;7.93;;;15.80;99.90;;;;;;4975754;28;20380;-77
2021/08/11 00:22:04;;;;;;;8.50;7.57;;;15.20;99.90;;;;;;4975452;28;20058;-75
2021/08/11 00:24:29;;;;;;;9.10;7.60;;;15.30;99.90;;;;;;4975599;28;20043;-77
2021/08/11 00:26:55;;;;;;;9.63;6.78;;;15.20;99.90;;;;;;4975759;28;20015;-75
2021/08/11 00:29:21;;;;;;;8.85;7.18;;;15.20;99.90;;;;;;4975324;28;20051;-76
2021/08/11 00:31:46;;;;;;;15.80;8.13;;;15.70;99.90;;;;;;4975989;28;20494;-76
2021/08/11 00:34:12;;;;;;;8.48;7.60;;;15.20;99.90;;;;;;4975615;28;20046;-76
2021/08/11 00:36:37;;;;;;;7.30;6.70;;;15.20;99.90;;;;;;4973912;28;20475;-77
2021/08/11 00:39:03;;;;;;;8.15;6.93;;;15.20;99.90;;;;;;4975598;28;20018;-76
2021/08/11 00:41:29;;;;;;;8.30;7.30;;;15.10;99.90;;;;;;4975032;28;20027;-76
2021/08/11 00:43:54;;;;;;;7.93;7.13;;;15.20;99.90;;;;;;4974995;28;20475;-75
2021/08/11 00:46:20;;;;;;;8.68;6.97;;;15.10;99.90;;;;;;4988079;28;20029;-75
2021/08/11 00:48:49;;;;;;;8.23;7.20;;;15.10;99.90;;;;;;4976334;28;20026;-75
2021/08/11 00:51:14;;;;;;;8.65;6.95;;;15.10;99.90;;;;;;4974733;28;20387;-75
2021/08/11 00:53:40;;;;;;;7.28;6.57;;;15.10;99.90;;;;;;4962288;28;20031;-76
2021/08/11 00:56:09;;;;;;;8.18;7.38;;;15.00;99.90;;;;;;4974433;28;20023;-76
2021/08/11 00:58:37;;;;;;;8.38;6.93;;;15.00;99.90;;;;;;4974625;28;20050;-75
2021/08/11 01:01:03;;;;;;;9.00;6.30;;;15.00;99.90;;;;;;4975164;28;20378;-76
2021/08/11 01:03:29;;;;;;;7.82;7.03;;;15.00;99.90;;;;;;4975586;28;20077;-76
2021/08/11 01:06:01;;;;;;;7.70;6.50;;;15.70;99.90;;;;;;4974764;28;20109;-76
2021/08/11 01:08:28;;;;;;;8.77;6.18;;;15.00;99.90;;;;;;4975207;28;20133;-75
2021/08/11 01:10:56;;;;;;;7.10;6.20;;;15.00;99.90;;;;;;4974745;28;20034;-76
2021/08/11 01:13:23;;;;;;;11.20;7.18;;;15.00;99.90;;;;;;4974812;28;20042;-75
2021/08/11 01:15:48;;;;;;;12.93;6.60;;;15.00;99.90;;;;;;4974439;28;20467;-75
2021/08/11 01:18:15;;;;;;;12.00;7.40;;;15.00;99.90;;;;;;4974545;28;20039;-75
2021/08/11 01:20:57;;;;;;;8.63;6.63;;;15.00;99.90;;;;;;4974526;28;20061;-77
2021/08/11 01:23:28;;;;;;;7.82;7.05;;;15.00;99.90;;;;;;4974872;28;20035;-77
2021/08/11 01:25:57;;;;;;;;;;;15.00;99.90;;;;;;4974268;28;20372;-75
2021/08/11 01:28:31;;;;;;;9.73;6.60;;;15.00;99.90;;;;;;4974424;28;19910;-75
2021/08/11 01:31:12;;;;;;;9.45;6.75;;;15.20;99.90;;;;;;4973314;28;20113;-77
2021/08/11 01:34:01;;;;;;;7.70;6.28;;;14.90;99.90;;;;;;4960109;28;20046;-77
2021/08/11 01:36:46;;;;;;;8.20;7.20;;;14.90;99.90;;;;;;4974450;28;20110;-77
2021/08/11 01:39:21;;;;;;;9.52;7.63;;;14.90;99.90;;;;;;4973803;28;20027;-75
2021/08/11 01:41:54;;;;;;;13.50;7.88;;;14.90;99.90;;;;;;4973974;28;20065;-75
2021/08/11 01:44:23;;;;;;;9.68;8.10;;;14.90;99.90;;;;;;4974754;28;20030;-75
2021/08/11 01:46:49;;;;;;;11.98;8.95;;;14.90;99.90;;;;;;4973280;28;20467;-75
2021/08/11 01:49:16;;;;;;;9.15;7.53;;;14.90;99.90;;;;;;4974275;28;20082;-75
2021/08/11 01:51:45;;;;;;;8.85;7.95;;;14.90;99.90;;;;;;4973928;28;20026;-76
2021/08/11 01:54:12;;;;;;;14.02;9.30;;;16.00;99.90;;;;;;4959821;28;20031;-76
2021/08/11 01:56:41;;;;;;;14.77;9.05;;;14.90;99.90;;;;;;4965123;28;20019;-76
2021/08/11 01:59:08;;;;;;;13.82;9.63;;;14.80;99.90;;;;;;4954644;28;20147;-77
2021/08/11 02:01:38;;;;;;;13.10;9.60;;;14.90;99.90;;;;;;4959575;28;20047;-77
2021/08/11 02:04:06;;;;;;;14.15;10.25;;;14.90;99.90;;;;;;4971983;28;20023;-77
2021/08/11 02:06:33;;;;;;;10.32;9.32;;;14.80;99.90;;;;;;4962636;28;20034;-76
2021/08/11 02:09:00;;;;;;;11.73;9.48;;;14.80;99.90;;;;;;4972863;28;20027;-76
2021/08/11 02:11:26;;;;;;;12.65;10.50;;;14.80;99.90;;;;;;4973857;28;20376;-76
2021/08/11 02:13:52;;;;;;;20.27;11.38;;;14.80;99.90;;;;;;4961702;28;20040;-76
2021/08/11 02:16:19;;;;;;;16.17;10.80;;;14.70;99.90;;;;;;4971809;28;20099;-76
2021/08/11 02:18:45;;;;;;;14.85;11.73;;;14.70;99.90;;;;;;4973531;28;20419;-76
2021/08/11 02:21:11;;;;;;;14.88;11.25;;;14.90;99.90;;;;;;4973638;28;20115;-77
2021/08/11 02:23:38;;;;;;;11.60;10.13;;;14.70;99.90;;;;;;4972682;28;20141;-76
2021/08/11 02:26:08;;;;;;;14.98;11.00;;;14.70;99.90;;;;;;4973672;28;20027;-76
2021/08/11 02:28:45;;;;;;;13.18;11.57;;;14.70;99.90;;;;;;4972890;28;20027;-76
2021/08/11 02:31:19;;;;;;;15.10;11.25;;;14.70;99.90;;;;;;4959797;28;20436;-76
2021/08/11 02:33:56;;;;;;;18.13;11.98;;;14.70;99.90;;;;;;4973178;28;20450;-75
2021/08/11 02:36:27;;;;;;;12.88;11.23;;;14.70;99.90;;;;;;4972614;28;20467;-76
2021/08/11 02:38:58;;;;;;;13.23;10.90;;;14.70;99.90;;;;;;4973437;28;20546;-76
2021/08/11 02:41:28;;;;;;;15.45;11.02;;;14.60;99.90;;;;;;4973349;28;20086;-76
2021/08/11 02:44:12;;;;;;;16.88;11.05;;;14.70;99.90;;;;;;4972754;28;20023;-76
2021/08/11 02:46:41;;;;;;;17.83;10.93;;;14.70;99.90;;;;;;4973307;28;20030;-76
2021/08/11 02:49:09;;;;;;;16.25;11.57;;;14.60;99.90;;;;;;4973317;28;20498;-75
2021/08/11 02:51:36;;;;;;;24.73;13.27;;;14.60;99.90;;;;;;4972378;28;20035;-75
2021/08/11 02:54:07;;;;;;;16.73;12.80;;;14.70;99.90;;;;;;4973280;28;20167;-75
2021/08/11 02:56:33;;;;;;;18.45;12.38;;;14.60;99.90;;;;;;4972175;28;20493;-75
2021/08/11 02:59:00;;;;;;;15.90;12.43;;;14.60;99.90;;;;;;4973868;28;20086;-75
2021/08/11 03:01:28;;;;;;;17.55;13.15;;;14.60;99.90;;;;;;4979734;28;20026;-75
2021/08/11 03:03:55;;;;;;;18.52;13.27;;;14.60;99.90;;;;;;4976063;28;20031;-75
2021/08/11 03:06:21;;;;;;;17.02;14.00;;;14.60;99.90;;;;;;4970002;28;20030;-76
2021/08/11 03:08:48;;;;;;;19.85;13.80;;;14.60;99.90;;;;;;4979230;28;20031;-74
2021/08/11 03:11:14;;;;;;;18.20;13.90;;;14.60;99.90;;;;;;4978814;28;20479;-75
2021/08/11 03:13:42;;;;;;;19.75;15.15;;;14.60;99.90;;;;;;4979259;28;20050;-75
2021/08/11 03:16:11;;;;;;;18.80;14.63;;;14.60;99.90;;;;;;4979646;28;20375;-74
2021/08/11 03:18:37;;;;;;;18.80;14.60;;;14.70;99.90;;;;;;4978631;28;20185;-76
2021/08/11 03:21:03;;;;;;;19.42;14.75;;;14.60;99.90;;;;;;4979543;28;20495;-76
2021/08/11 03:23:29;;;;;;;16.95;14.27;;;14.60;99.90;;;;;;4979159;28;20033;-76
2021/08/11 03:25:54;;;;;;;20.35;14.80;;;15.20;99.90;;;;;;4978760;28;20039;-76
2021/08/11 03:28:20;;;;;;;20.77;16.00;;;14.70;99.90;;;;;;4979791;28;20027;-77
2021/08/11 03:30:46;;;;;;;21.90;16.13;;;14.60;99.90;;;;;;4979356;28;20688;-76
2021/08/11 03:33:11;;;;;;;28.70;18.58;;;14.60;99.90;;;;;;4979336;28;20035;-75
2021/08/11 03:35:37;;;;;;;27.75;17.23;;;14.60;99.90;;;;;;4979689;28;20035;-75
2021/08/11 03:38:03;;;;;;;25.20;16.02;;;14.70;99.90;;;;;;4979621;28;20545;-75
2021/08/11 03:40:29;;;;;;;25.85;18.45;;;14.70;99.90;;;;;;4978455;28;20085;-77
2021/08/11 03:42:55;;;;;;;20.90;17.13;;;14.60;99.90;;;;;;4979433;28;20030;-77
2021/08/11 03:45:21;;;;;;;23.40;17.42;;;14.70;99.90;;;;;;4979462;28;20073;-77
2021/08/11 03:47:46;;;;;;;23.48;17.80;;;14.60;99.90;;;;;;4978408;28;20347;-73
2021/08/11 03:50:13;;;;;;;24.48;17.73;;;14.60;99.90;;;;;;4979306;28;20026;-73
2021/08/11 03:52:39;;;;;;;22.40;17.13;;;14.60;99.90;;;;;;4978743;28;20114;-77
2021/08/11 03:55:05;;;;;;;23.60;18.40;;;14.60;99.90;;;;;;4978430;28;20121;-77
2021/08/11 03:57:31;;;;;;;24.67;17.90;;;14.60;99.90;;;;;;4978899;28;20475;-76
2021/08/11 03:59:57;;;;;;;23.42;18.30;;;14.70;99.90;;;;;;4978157;28;20058;-76
2021/08/11 04:02:22;;;;;;;28.23;20.42;;;14.60;99.90;;;;;;4979227;28;20023;-77
2021/08/11 04:04:48;;;;;;;25.15;17.98;;;14.60;99.90;;;;;;4968654;28;20023;-76
2021/08/11 04:07:13;;;;;;;24.40;18.15;;;14.50;99.90;;;;;;4974507;28;20109;-76
2021/08/11 04:09:39;;;;;;;23.77;18.23;;;14.50;99.90;;;;;;4978565;28;20042;-76
2021/08/11 04:12:04;;;;;;;27.65;20.10;;;14.50;99.90;;;;;;4974940;28;20446;-76
2021/08/11 04:14:30;;;;;;;29.35;19.48;;;14.50;99.90;;;;;;4975021;28;20035;-76
2021/08/11 04:16:56;;;;;;;21.88;18.10;;;14.50;99.90;;;;;;4975871;28;20019;-76
2021/08/11 04:19:21;;;;;;;26.70;18.38;;;14.50;99.90;;;;;;4975773;28;20054;-77
2021/08/11 04:21:47;;;;;;;23.02;17.90;;;14.50;99.90;;;;;;4974816;28;20077;-76
2021/08/11 04:24:12;;;;;;;25.63;17.80;;;14.50;99.90;;;;;;4975678;28;20030;-77
2021/08/11 04:26:38;;;;;;;26.50;18.75;;;14.50;99.90;;;;;;4975706;28;20019;-77
2021/08/11 04:29:03;;;;;;;27.77;17.35;;;14.50;99.90;;;;;;4974938;28;20019;-76
2021/08/11 04:31:29;;;;;;;30.25;18.48;;;14.50;99.90;;;;;;4975341;28;20023;-76
2021/08/11 04:33:54;;;;;;;25.73;17.60;;;14.50;99.90;;;;;;4975560;28;20129;-77
2021/08/11 04:36:20;;;;;;;25.73;18.27;;;14.50;99.90;;;;;;4974884;28;20065;-77
2021/08/11 04:38:45;;;;;;;24.65;17.90;;;14.50;99.90;;;;;;4965696;28;20621;-76
2021/08/11 04:41:14;;;;;;;25.23;19.48;;;14.60;99.90;;;;;;4971695;28;20031;-76
2021/08/11 04:43:40;;;;;;;24.58;18.55;;;14.60;99.90;;;;;;4975021;28;20475;-76
2021/08/11 04:46:06;;;;;;;30.15;19.42;;;15.30;99.90;;;;;;4975367;28;20041;-76
2021/08/11 04:48:32;;;;;;;24.73;18.80;;;14.60;99.90;;;;;;4975191;28;20050;-77
2021/08/11 04:50:58;;;;;;;23.45;17.25;;;14.60;99.90;;;;;;4974746;28;20022;-77
2021/08/11 04:53:23;;;;;;;24.42;18.00;;;14.60;99.90;;;;;;4975084;28;20376;-76
2021/08/11 04:55:50;;;;;;;25.38;18.25;;;14.60;99.90;;;;;;4975311;28;20023;-75
2021/08/11 04:58:16;;;;;;;23.40;18.65;;;14.70;99.90;;;;;;4974474;28;20034;-75
2021/08/11 05:00:42;;;;;;;23.83;17.88;;;14.70;99.90;;;;;;4975153;28;20085;-77
2021/08/11 05:03:08;;;;;;;27.60;17.88;;;14.80;99.90;;;;;;4974455;28;20023;-75
2021/08/11 05:05:33;;;;;;;28.05;18.05;;;14.80;99.90;;;;;;4961157;28;20027;-76
2021/08/11 05:07:59;;;;;;;24.15;17.17;;;14.80;99.90;;;;;;4975127;28;20423;-76
2021/08/11 05:10:28;;;;;;;24.77;16.77;;;14.90;99.90;;;;;;4974181;28;20387;-76
2021/08/11 05:12:53;;;;;;;23.42;16.52;;;15.00;99.90;;;;;;4975032;28;20070;-77
2021/08/11 05:15:19;;;;;;;28.83;16.75;;;15.00;99.90;;;;;;4975065;28;20435;-76
2021/08/11 05:17:44;;;;;;;25.15;17.95;;;15.10;99.90;;;;;;4973785;28;20047;-77
2021/08/11 05:20:12;;;;;;;24.02;17.10;;;15.20;99.90;;;;;;4975296;28;20050;-77
2021/08/11 05:22:38;;;;;;;22.05;17.65;;;15.20;99.90;;;;;;4975192;28;20057;-77
2021/08/11 05:25:04;;;;;;;23.02;16.60;;;15.30;99.90;;;;;;4974338;28;20072;-76
2021/08/11 05:27:29;;;;;;;22.20;15.90;;;15.40;99.90;;;;;;4974273;28;20022;-77
2021/08/11 05:29:56;;;;;;;20.73;16.48;;;15.50;99.90;;;;;;4975811;28;20029;-76
2021/08/11 05:32:21;;;;;;;23.02;16.42;;;15.60;99.90;;;;;;4974041;28;20035;-77
2021/08/11 05:34:47;;;;;;;24.00;14.60;;;15.70;99.90;;;;;;4974170;28;20030;-77
2021/08/11 05:37:12;;;;;;;19.83;15.63;;;15.80;99.90;;;;;;4974407;28;20467;-76
2021/08/11 05:39:38;;;;;;;19.70;15.25;;;15.80;99.90;;;;;;4973134;28;20598;-76
2021/08/11 05:42:04;;;;;;;22.45;15.32;;;15.90;99.90;;;;;;4976003;28;20027;-76
2021/08/11 05:44:31;;;;;;;17.17;14.50;;;15.90;99.90;;;;;;4974212;28;20023;-76
2021/08/11 05:46:56;;;;;;;16.10;14.00;;;16.00;99.90;;;;;;4973812;28;20078;-77
2021/08/11 05:49:22;;;;;;;23.33;15.43;;;16.00;99.90;;;;;;4974245;28;20031;-76
2021/08/11 05:51:47;;;;;;;19.20;15.50;;;16.00;99.90;;;;;;4973702;28;20140;-76
2021/08/11 05:54:13;;;;;;;22.85;15.32;;;16.00;99.90;;;;;;4973739;28;20073;-75
2021/08/11 05:56:39;;;;;;;21.70;14.77;;;16.00;99.90;;;;;;4973980;28;20580;-75
2021/08/11 05:59:04;;;;;;;22.05;15.73;;;16.00;99.90;;;;;;4974343;28;20070;-76
2021/08/11 06:01:30;;;;;;;20.70;15.40;;;16.00;99.90;;;;;;4974656;28;20034;-75
2021/08/11 06:04:00;;;;;;;19.60;14.15;;;16.00;99.90;;;;;;4971533;28;20042;-75
2021/08/11 06:06:27;;;;;;;21.10;13.48;;;16.00;99.90;;;;;;4963616;28;20109;-76
2021/08/11 06:08:53;;;;;;;20.55;15.32;;;16.10;99.90;;;;;;4973925;28;20030;-77
2021/08/11 06:11:19;;;;;;;19.67;15.10;;;16.10;99.90;;;;;;4973902;28;20487;-77
2021/08/11 06:13:45;;;;;;;23.13;15.05;;;16.10;99.90;;;;;;4972907;28;20073;-76
2021/08/11 06:16:10;;;;;;;20.42;14.65;;;16.20;99.90;;;;;;4960150;28;20371;-75
2021/08/11 06:18:36;;;;;;;17.25;13.23;;;16.20;99.90;;;;;;4973560;28;20031;-76
2021/08/11 06:21:02;;;;;;;16.60;13.70;;;16.20;99.90;;;;;;4972880;28;20018;-76
2021/08/11 06:23:28;;;;;;;23.83;14.30;;;16.30;99.90;;;;;;4973513;28;20027;-76
2021/08/11 06:25:53;;;;;;;22.65;13.93;;;16.30;99.90;;;;;;4973673;28;20475;-76
2021/08/11 06:28:19;;;;;;;19.60;13.52;;;16.40;99.90;;;;;;4973060;28;20030;-76
2021/08/11 06:30:45;;;;;;;20.85;13.82;;;16.40;99.90;;;;;;4973416;28;20098;-75
2021/08/11 06:33:10;;;;;;;15.88;13.40;;;16.40;99.90;;;;;;4959857;28;20688;-76
2021/08/11 06:35:36;;;;;;;20.85;14.63;;;16.50;99.90;;;;;;4971829;28;20419;-76
2021/08/11 06:38:02;;;;;;;15.68;13.40;;;16.60;99.90;;;;;;4973370;28;20022;-75
2021/08/11 06:40:28;;;;;;;22.48;13.45;;;16.70;99.90;;;;;;4973449;28;20109;-77
2021/08/11 06:42:54;;;;;;;19.38;13.15;;;16.70;99.90;;;;;;4986276;28;20050;-76
2021/08/11 06:45:19;;;;;;;13.70;12.07;;;16.80;99.90;;;;;;4973561;28;20097;-76
2021/08/11 06:47:45;;;;;;;17.35;12.57;;;16.90;99.90;;;;;;4973060;28;20439;-76
2021/08/11 06:50:14;;;;;;;20.52;12.38;;;16.90;99.90;;;;;;4972438;28;20069;-76
2021/08/11 06:52:39;;;;;;;18.55;12.45;;;17.00;99.90;;;;;;4972969;28;20023;-76
2021/08/11 06:55:12;;;;;;;15.45;11.48;;;17.00;99.90;;;;;;4973450;28;20049;-77
2021/08/11 06:57:39;;;;;;;20.95;12.30;;;17.10;99.90;;;;;;4972600;28;20023;-77
2021/08/11 07:00:06;;;;;;;21.13;12.27;;;17.20;99.90;;;;;;4973030;28;20047;-77
2021/08/11 07:02:32;;;;;;;13.70;10.10;;;17.30;99.90;;;;;;4973156;28;20027;-76
2021/08/11 07:04:57;;;;;;;16.20;9.85;;;17.40;99.90;;;;;;4961651;28;20019;-76
2021/08/11 07:07:23;;;;;;;21.50;11.13;;;17.50;99.90;;;;;;4970990;28;20019;-76
2021/08/11 07:09:48;;;;;;;17.02;10.90;;;17.60;99.90;;;;;;4972458;28;20123;-76
2021/08/11 07:12:14;;;;;;;16.92;9.60;;;17.60;99.90;;;;;;4973184;28;20034;-77
2021/08/11 07:14:40;;;;;;;15.93;10.40;;;17.70;99.90;;;;;;4972883;28;20062;-76
2021/08/11 07:17:05;;;;;;;20.58;10.32;;;17.70;99.90;;;;;;4972528;28;20023;-77
2021/08/11 07:19:31;;;;;;;15.77;10.35;;;17.80;99.90;;;;;;4986286;28;20062;-77
2021/08/11 07:21:56;;;;;;;13.23;8.73;;;18.30;99.90;;;;;;4973034;28;20023;-77
2021/08/11 07:24:22;;;;;;;19.58;9.25;;;18.00;99.90;;;;;;4972329;28;20019;-77
2021/08/11 07:26:47;;;;;;;21.92;10.00;;;18.60;99.90;;;;;;4981825;28;20027;-76
2021/08/11 07:29:13;;;;;;;11.10;8.70;;;18.20;99.90;;;;;;4977474;28;20029;-77
2021/08/11 07:31:38;;;;;;;14.27;9.30;;;18.30;99.90;;;;;;4972041;28;20026;-77
2021/08/11 07:34:04;;;;;;;12.02;8.05;;;18.30;99.90;;;;;;4972638;28;20482;-77
2021/08/11 07:36:30;;;;;;;11.55;8.40;;;18.40;99.90;;;;;;4972689;28;20026;-76
2021/08/11 07:38:55;;;;;;;14.55;7.95;;;18.40;99.90;;;;;;4972357;28;20034;-77
2021/08/11 07:41:21;;;;;;;10.50;8.27;;;18.40;99.90;;;;;;4975971;28;20057;-77
2021/08/11 07:43:46;;;;;;;10.23;8.10;;;18.40;99.90;;;;;;4983501;28;20035;-77
2021/08/11 07:46:12;;;;;;;15.75;8.40;;;18.60;99.90;;;;;;4974132;28;20046;-77
2021/08/11 07:48:38;;;;;;;14.52;7.38;;;18.60;99.90;;;;;;4976149;28;20030;-76
2021/08/11 07:51:04;;;;;;;9.98;7.65;;;18.70;99.90;;;;;;4976998;28;20023;-77
2021/08/11 07:53:30;;;;;;;10.88;7.03;;;18.80;99.90;;;;;;4975662;28;20029;-76
2021/08/11 07:55:55;;;;;;;13.02;6.75;;;19.00;99.90;;;;;;4976648;28;20034;-75
2021/08/11 07:58:24;;;;;;;11.02;6.35;;;19.10;99.90;;;;;;4976202;28;20093;-76
2021/08/11 08:00:50;;;;;;;7.85;5.60;;;19.20;99.90;;;;;;4975522;28;20383;-75
2021/08/11 08:03:16;;;;;;;7.57;5.32;;;19.30;99.90;;;;;;4976324;28;20105;-76
2021/08/11 08:05:42;;;;;;;6.85;5.03;;;19.20;99.90;;;;;;4962969;28;20023;-77
2021/08/11 08:08:08;;;;;;;9.90;5.53;;;19.30;99.90;;;;;;4975620;28;20037;-77
2021/08/11 08:10:33;;;;;;;8.93;6.15;;;19.20;99.90;;;;;;4975908;28;20058;-76
2021/08/11 08:12:59;;;;;;;10.88;6.25;;;19.30;99.90;;;;;;4975439;28;20019;-76
2021/08/11 08:15:26;;;;;;;9.25;5.68;;;19.30;99.90;;;;;;4976121;28;20383;-77
2021/08/11 08:17:51;;;;;;;12.38;5.40;;;19.40;99.90;;;;;;4970811;28;20023;-76
2021/08/11 08:20:18;;;;;;;9.70;5.57;;;19.60;99.90;;;;;;4967771;28;20081;-77
2021/08/11 08:22:46;;;;;;;10.25;5.70;;;19.70;99.90;;;;;;4989521;28;20509;-76
2021/08/11 08:25:12;;;;;;;10.07;5.18;;;19.80;99.90;;;;;;4976236;28;20023;-76
2021/08/11 08:27:39;;;;;;;9.88;5.35;;;19.70;99.90;;;;;;4976314;28;20501;-76
2021/08/11 08:30:07;;;;;;;10.05;5.80;;;19.90;99.90;;;;;;4976845;28;20427;-75
2021/08/11 08:32:32;;;;;;;7.88;5.55;;;19.90;99.90;;;;;;4975558;28;20034;-77
2021/08/11 08:34:58;;;;;;;6.30;5.43;;;19.90;99.90;;;;;;4975221;28;20043;-76
2021/08/11 08:37:32;;;;;;;8.85;5.35;;;19.90;99.90;;;;;;4975979;28;20031;-76
2021/08/11 08:39:58;;;;;;;12.02;6.22;;;20.00;99.90;;;;;;4975589;28;20019;-75
2021/08/11 08:42:24;;;;;;;6.10;5.47;;;20.00;99.90;;;;;;4975041;28;20086;-76
2021/08/11 08:44:50;;;;;;;7.93;5.40;;;20.10;99.90;;;;;;4975163;28;20023;-76
2021/08/11 08:47:17;;;;;;;9.70;5.13;;;20.10;99.90;;;;;;4975680;28;20030;-76
2021/08/11 08:49:45;;;;;;;9.73;6.63;;;20.10;99.90;;;;;;4974506;28;20053;-77
2021/08/11 08:52:16;;;;;;;9.57;5.97;;;20.10;99.90;;;;;;4975330;28;20023;-76
2021/08/11 08:54:43;;;;;;;11.30;7.07;;;20.10;99.90;;;;;;4975208;28;20053;-77
2021/08/11 08:57:09;;;;;;;8.35;6.95;;;20.10;99.90;;;;;;4973953;28;20035;-76
2021/08/11 08:59:34;;;;;;;12.38;6.90;;;20.10;99.90;;;;;;4974963;28;20186;-76
2021/08/11 09:02:00;;;;;;;19.52;7.15;;;20.00;99.90;;;;;;4988884;28;20598;-76
2021/08/11 09:04:25;;;;;;;11.43;6.78;;;20.00;99.90;;;;;;4967713;28;20089;-76
2021/08/11 09:06:51;;;;;;;10.70;7.03;;;20.00;99.90;;;;;;4968847;28;20026;-77
2021/08/11 09:09:16;;;;;;;10.93;7.25;;;20.00;99.90;;;;;;4974445;28;20027;-76
2021/08/11 09:11:43;;;;;;;11.85;7.40;;;20.00;99.90;;;;;;4974893;28;20352;-76
2021/08/11 09:14:25;;;;;;;7.90;7.03;;;20.00;99.90;;;;;;4975331;28;20035;-77
2021/08/11 09:16:56;;;;;;;12.93;7.28;;;20.10;99.90;;;;;;4974557;28;20386;-77
2021/08/11 09:19:22;;;;;;;10.80;7.28;;;20.10;99.90;;;;;;4974922;28;20035;-76
2021/08/11 09:22:06;;;;;;;14.30;7.45;;;20.20;99.90;;;;;;4975898;28;20031;-78
2021/08/11 09:24:35;;;;;;;16.95;8.25;;;20.30;99.90;;;;;;4974929;28;20497;-77
2021/08/11 09:27:38;;;;;;;13.37;8.43;;;20.20;99.90;;;;;;4974038;28;20039;-77
2021/08/11 09:30:10;;;;;;;10.90;7.82;;;20.20;99.90;;;;;;4973884;28;20266;-77
2021/08/11 09:32:49;;;;;;;13.77;7.70;;;20.20;99.90;;;;;;4973623;28;20439;-76
2021/08/11 09:35:38;;;;;;;16.02;7.80;;;20.30;99.90;;;;;;4974627;28;20127;-75
2021/08/11 09:38:21;;;;;;;9.30;5.85;;;20.30;99.90;;;;;;4973799;28;20019;-77
2021/08/11 09:40:48;;;;;;;11.23;7.00;;;20.30;99.90;;;;;;4974736;28;20037;-76
2021/08/11 09:43:32;;;;;;;8.75;5.57;;;20.50;99.90;;;;;;4974453;28;20122;-77
2021/08/11 09:45:58;;;;;;;8.48;4.82;;;21.00;99.90;;;;;;4974232;28;20065;-77
2021/08/11 09:48:39;;;;;;;7.03;4.70;;;20.90;99.90;;;;;;4974604;28;20058;-77
2021/08/11 09:51:06;;;;;;;9.15;5.10;;;21.20;99.90;;;;;;4974760;28;20031;-75
2021/08/11 09:53:33;;;;;;;9.35;5.32;;;21.30;99.90;;;;;;4973326;28;20483;-75
2021/08/11 09:56:09;;;;;;;7.80;5.32;;;21.50;99.90;;;;;;4974749;28;20394;-75
2021/08/11 09:58:47;;;;;;;9.27;5.05;;;21.50;99.90;;;;;;4973113;28;20042;-75
2021/08/11 10:01:16;;;;;;;6.82;4.13;;;21.50;99.90;;;;;;4974208;28;20471;-76
2021/08/11 10:04:03;;;;;;;5.65;4.25;;;21.40;99.90;;;;;;4972516;28;20078;-76
2021/08/11 10:06:35;;;;;;;7.05;3.97;;;21.40;99.90;;;;;;4964088;28;20042;-77
2021/08/11 10:09:25;;;;;;;9.82;4.43;;;21.40;99.90;;;;;;4973318;28;20491;-74
2021/08/11 10:11:55;;;;;;;8.18;3.78;;;21.40;99.90;;;;;;4973951;28;20077;-76
2021/08/11 10:14:22;;;;;;;;;;;21.40;99.90;;;;;;4973694;28;20038;-76
2021/08/11 10:16:49;;;;;;;6.78;5.28;;;21.40;99.90;;;;;;4974070;28;19912;-76
2021/08/11 10:19:15;;;;;;;8.35;4.45;;;21.50;99.90;;;;;;4974086;28;20047;-76
2021/08/11 10:21:47;;;;;;;8.63;5.65;;;21.60;99.90;;;;;;4973367;28;20031;-76
2021/08/11 10:24:14;;;;;;;9.57;5.00;;;21.70;99.90;;;;;;4974087;28;20086;-76
2021/08/11 10:26:40;;;;;;;11.65;4.95;;;21.60;99.90;;;;;;4973145;28;20031;-77
2021/08/11 10:29:06;;;;;;;8.68;5.18;;;21.80;99.90;;;;;;4973932;28;20037;-74
2021/08/11 10:31:33;;;;;;;9.20;4.50;;;21.80;99.90;;;;;;4974005;28;20023;-77
2021/08/11 10:34:02;;;;;;;5.55;4.80;;;21.90;99.90;;;;;;4973230;28;20126;-76
2021/08/11 10:36:30;;;;;;;11.35;4.95;;;21.80;99.90;;;;;;4973466;28;20019;-76
2021/08/11 10:38:57;;;;;;;7.35;4.60;;;22.00;99.90;;;;;;4974095;28;20106;-75
2021/08/11 10:41:30;;;;;;;8.45;5.20;;;21.90;99.90;;;;;;4973625;28;20352;-76
2021/08/11 10:43:58;;;;;;;8.43;4.68;;;21.90;99.90;;;;;;4974203;28;20069;-76
2021/08/11 10:46:40;;;;;;;5.15;4.70;;;22.00;99.90;;;;;;4974042;28;20038;-74
2021/08/11 10:49:07;;;;;;;9.20;4.82;;;22.00;99.90;;;;;;4974500;28;20058;-76
2021/08/11 10:51:42;;;;;;;8.70;4.85;;;22.10;99.90;;;;;;4980620;28;20046;-77
2021/08/11 10:54:09;;;;;;;5.53;4.20;;;22.10;99.90;;;;;;4977963;28;20189;-77
2021/08/11 10:56:46;;;;;;;8.82;4.20;;;22.20;99.90;;;;;;4972652;28;20023;-77
2021/08/11 10:59:33;;;;;;;6.18;4.60;;;22.30;99.90;;;;;;4973504;28;20055;-76
2021/08/11 11:01:59;;;;;;;7.82;4.72;;;22.30;99.90;;;;;;4972945;28;20031;-75
2021/08/11 11:04:42;;;;;;;9.27;5.57;;;22.40;99.90;;;;;;4966564;28;20106;-76
2021/08/11 11:07:10;;;;;;;4.60;4.20;;;22.50;99.90;;;;;;4969034;28;20034;-76
2021/08/11 11:09:40;;;;;;;10.43;4.70;;;22.40;99.90;;;;;;4972462;28;20348;-75
2021/08/11 11:12:21;;;;;;;8.25;4.82;;;22.60;99.90;;;;;;4973513;28;20019;-76
2021/08/11 11:14:47;;;;;;;;;;;22.70;99.90;;;;;;4973373;28;20043;-77
2021/08/11 11:17:14;;;;;;;6.72;4.10;;;22.70;99.90;;;;;;4972629;28;19910;-77
2021/08/11 11:20:05;;;;;;;8.38;4.32;;;22.80;99.90;;;;;;4973213;28;20023;-76
2021/08/11 11:22:48;;;;;;;;;;;22.80;99.80;;;;;;4977349;28;20030;-76
2021/08/11 11:25:18;;;;;;;4.82;4.18;;;22.80;99.90;;;;;;4976921;28;19910;-75
2021/08/11 11:27:44;;;;;;;5.50;4.55;;;22.80;99.60;;;;;;4976914;28;20565;-76
2021/08/11 11:30:30;;;;;;;6.78;4.00;;;22.80;99.60;;;;;;4976587;28;20134;-76
2021/08/11 11:33:15;;;;;;;6.15;4.45;;;22.90;99.90;;;;;;4977248;28;20081;-77
2021/08/11 11:35:41;;;;;;;6.65;4.38;;;23.00;99.90;;;;;;4976274;28;20035;-78
2021/08/11 11:38:09;;;;;;;4.93;3.97;;;23.00;99.50;;;;;;4962502;28;20042;-76
2021/08/11 11:40:56;;;;;;;6.88;3.80;;;23.00;99.60;;;;;;4976543;28;20026;-77
2021/08/11 11:43:23;;;;;;;4.10;3.53;;;23.00;99.20;;;;;;4976583;28;20023;-78
2021/08/11 11:45:49;;;;;;;6.97;5.38;;;23.10;99.20;;;;;;4975838;28;20401;-78
2021/08/11 11:48:17;;;;;;;6.82;4.38;;;23.10;99.00;;;;;;4977172;28;20060;-78
2021/08/11 11:50:49;;;;;;;6.13;3.42;;;23.20;98.80;;;;;;4977347;28;20026;-77
2021/08/11 11:53:27;;;;;;;9.45;4.22;;;23.20;98.30;;;;;;4975908;28;20073;-78
2021/08/11 11:55:53;;;;;;;6.03;4.60;;;23.30;98.40;;;;;;4976704;28;20062;-77
2021/08/11 11:58:24;;;;;;;11.90;4.60;;;23.40;98.70;;;;;;4978461;28;20027;-77
2021/08/11 12:01:12;;;;;;;5.78;3.58;;;23.40;98.90;;;;;;4986835;28;20093;-77
2021/08/11 12:03:46;;;;;;;5.78;4.13;;;23.50;99.10;;;;;;4975571;28;20027;-77
2021/08/11 12:06:12;;;;;;;6.65;3.97;;;23.50;98.10;;;;;;4964109;28;20475;-75
2021/08/11 12:08:38;;;;;;;7.00;4.03;;;23.60;98.50;;;;;;4976152;28;20034;-77
2021/08/11 12:11:13;;;;;;;7.82;4.07;;;23.70;98.00;;;;;;4962659;28;20430;-77
2021/08/11 12:13:49;;;;;;;6.90;3.55;;;23.80;97.40;;;;;;4975484;28;20027;-75
2021/08/11 12:16:17;;;;;;;6.60;4.00;;;23.70;96.30;;;;;;4963519;28;20029;-76
2021/08/11 12:18:45;;;;;;;8.98;4.60;;;23.70;97.00;;;;;;4975992;28;20035;-76
2021/08/11 12:21:12;;;;;;;4.75;3.17;;;23.70;96.60;;;;;;4975278;28;20034;-76
2021/08/11 12:23:38;;;;;;;4.22;3.45;;;23.70;96.80;;;;;;4975548;28;20037;-75
2021/08/11 12:26:14;;;;;;;3.95;3.50;;;23.90;96.60;;;;;;4976033;28;20027;-76
2021/08/11 12:28:46;;;;;;;5.72;3.47;;;24.00;96.20;;;;;;4975763;28;20034;-77
2021/08/11 12:31:29;;;;;;;4.18;3.50;;;24.20;95.90;;;;;;4975711;28;20102;-77
2021/08/11 12:33:58;;;;;;;5.55;3.63;;;24.50;95.40;;;;;;4974393;28;20039;-76
2021/08/11 12:36:36;;;;;;;9.63;3.50;;;24.30;95.20;;;;;;4971447;28;20023;-78
2021/08/11 12:39:16;;;;;;;4.65;4.07;;;24.50;95.20;;;;;;4968172;28;20030;-76
2021/08/11 12:41:58;;;;;;;6.40;4.25;;;24.60;94.50;;;;;;4974742;28;20039;-77
2021/08/11 12:44:27;;;;;;;6.15;4.47;;;24.70;94.20;;;;;;4975780;28;20023;-77